createdAt,value
2019-06-01T00:00:15.102Z,102046.03
2019-06-01T00:02:54.392Z,102043.45
2019-06-01T00:05:17.436Z,102047.02
2019-06-01T00:07:47.065Z,102044.02
2019-06-01T00:10:16.529Z,102044.95
2019-06-01T00:12:45.955Z,102044.09
2019-06-01T00:15:15.693Z,102045.91
2019-06-01T00:17:45.989Z,102043.33
2019-06-01T00:20:16.658Z,102050.87
2019-06-01T00:22:47.428Z,102054.02
2019-06-01T00:25:16.838Z,102052.72
2019-06-01T00:27:46.738Z,102048.39
2019-06-01T00:30:26.568Z,102052.45
2019-06-01T00:32:47.627Z,102046.78
2019-06-01T00:35:17.508Z,102039.40
2019-06-01T00:37:47.624Z,102042.09
2019-06-01T00:40:17.256Z,102041.30
2019-06-01T00:42:48.203Z,102044.85
2019-06-01T00:45:17.901Z,102039.20
2019-06-01T00:47:48.857Z,102039.71
2019-06-01T00:50:18.710Z,102030.92
2019-06-01T00:52:49.256Z,102031.39
2019-06-01T00:55:18.742Z,102036.72
2019-06-01T00:57:48.140Z,102037.19
2019-06-01T01:00:17.887Z,102033.27
2019-06-01T01:02:48.047Z,102034.23
2019-06-01T01:05:22.074Z,102038.23
2019-06-01T01:07:53.075Z,102030.36
2019-06-01T01:10:24.201Z,102027.72
2019-06-01T01:13:05.118Z,102030.37
2019-06-01T01:15:35.841Z,102031.28
2019-06-01T01:18:07.537Z,102031.33
2019-06-01T01:20:38.123Z,102037.92
2019-06-01T01:23:08.152Z,102034.42
2019-06-01T01:25:37.553Z,102033.09
2019-06-01T01:28:07.000Z,102030.01
2019-06-01T01:30:36.470Z,102039.26
2019-06-01T01:33:06.307Z,102029.59
2019-06-01T01:35:36.812Z,102033.52
2019-06-01T01:38:06.477Z,102036.16
2019-06-01T01:40:35.855Z,102035.28
2019-06-01T01:43:05.606Z,102029.55
2019-06-01T01:45:35.173Z,102022.91
2019-06-01T01:48:04.841Z,102020.16
2019-06-01T01:50:34.461Z,102025.34
2019-06-01T01:53:04.755Z,102018.17
2019-06-01T01:55:34.421Z,102017.20
2019-06-01T01:58:04.260Z,102016.63
2019-06-01T02:00:45.217Z,102013.42
2019-06-01T02:03:15.175Z,102014.23
2019-06-01T02:05:44.802Z,102012.41
2019-06-01T02:08:14.314Z,102013.22
2019-06-01T02:10:43.783Z,102013.66
2019-06-01T02:13:13.550Z,102011.84
2019-06-01T02:15:43.637Z,102014.54
2019-06-01T02:18:13.041Z,102022.47
2019-06-01T02:20:42.490Z,102020.73
2019-06-01T02:23:14.674Z,102024.80
2019-06-01T02:25:44.115Z,102027.50
2019-06-01T02:28:13.751Z,102025.33
2019-06-01T02:30:43.379Z,102023.64
2019-06-01T02:33:12.757Z,102021.47
2019-06-01T02:35:42.149Z,102026.45
2019-06-01T02:38:11.546Z,102021.58
2019-06-01T02:40:41.286Z,102021.21
2019-06-01T02:43:11.018Z,102018.12
2019-06-01T02:45:40.486Z,102014.62
2019-06-01T02:48:10.014Z,102015.94
2019-06-01T02:50:39.399Z,102013.80
2019-06-01T02:53:09.006Z,102016.04
2019-06-01T02:55:38.432Z,102017.87
2019-06-01T02:58:07.812Z,102017.05
2019-06-01T03:00:49.481Z,102012.23
2019-06-01T03:03:19.198Z,102014.51
2019-06-01T03:05:50.633Z,102015.02
2019-06-01T03:08:20.585Z,102006.28
2019-06-01T03:10:52.570Z,102008.56
2019-06-01T03:13:24.940Z,102004.64
2019-06-01T03:15:57.188Z,102006.84
2019-06-01T03:18:30.334Z,102005.56
2019-06-01T03:21:04.699Z,102006.02
2019-06-01T03:23:34.905Z,102005.15
2019-06-01T03:26:06.251Z,102012.62
2019-06-01T03:28:38.762Z,102004.69
2019-06-01T03:31:10.510Z,102011.75
2019-06-01T03:33:39.473Z,102016.58
2019-06-01T03:36:09.106Z,102012.63
2019-06-01T03:38:38.707Z,102015.72
2019-06-01T03:41:08.338Z,102015.30
2019-06-01T03:43:37.716Z,102013.99
2019-06-01T03:46:07.118Z,102013.13
2019-06-01T03:48:36.522Z,102013.59
2019-06-01T03:51:06.165Z,102009.20
2019-06-01T03:53:35.755Z,102011.84
2019-06-01T03:56:05.487Z,102011.39
2019-06-01T03:58:34.985Z,102008.30
2019-06-01T04:01:05.178Z,102016.67
2019-06-01T04:03:34.632Z,102016.63
2019-06-01T04:06:05.290Z,102024.09
2019-06-01T04:08:34.855Z,102024.50
2019-06-01T04:11:06.234Z,102026.19
2019-06-01T04:13:36.783Z,102038.47
2019-06-01T04:16:06.349Z,102036.20
2019-06-01T04:18:35.877Z,102032.15
2019-06-01T04:21:08.058Z,102043.06
2019-06-01T04:23:37.813Z,102038.55
2019-06-01T04:26:08.109Z,102045.92
2019-06-01T04:28:45.312Z,102043.17
2019-06-01T04:31:14.754Z,102042.16
2019-06-01T04:33:44.142Z,102042.91
2019-06-01T04:36:13.541Z,102047.59
2019-06-01T04:38:42.956Z,102046.61
2019-06-01T04:41:12.360Z,102050.05
2019-06-01T04:43:41.840Z,102049.02
2019-06-01T04:46:12.357Z,102037.47
2019-06-01T04:48:41.816Z,102036.91
2019-06-01T04:51:12.138Z,102040.34
2019-06-01T04:53:42.311Z,102028.79
2019-06-01T04:56:12.957Z,102031.36
2019-06-01T04:58:42.497Z,102026.75
2019-06-01T05:01:13.041Z,102026.53
2019-06-01T05:03:42.613Z,102016.48
2019-06-01T05:06:13.324Z,102014.34
2019-06-01T05:08:42.977Z,102013.00
2019-06-01T05:11:13.582Z,102016.08
2019-06-01T05:13:42.982Z,102021.31
2019-06-01T05:16:13.425Z,102017.33
2019-06-01T05:18:43.537Z,102014.22
2019-06-01T05:21:15.135Z,102016.39
2019-06-01T05:23:44.796Z,102014.62
2019-06-01T05:26:15.069Z,102012.31
2019-06-01T05:28:44.721Z,102011.75
2019-06-01T05:31:22.002Z,102008.05
2019-06-01T05:33:46.573Z,102004.32
2019-06-01T05:36:16.309Z,102000.18
2019-06-01T05:38:45.733Z,102006.52
2019-06-01T05:41:15.204Z,101999.37
2019-06-01T05:43:44.590Z,102004.01
2019-06-01T05:46:14.329Z,102012.02
2019-06-01T05:48:43.783Z,102001.72
2019-06-01T05:51:15.575Z,102001.97
2019-06-01T05:53:44.297Z,102010.00
2019-06-01T05:56:14.762Z,102004.43
2019-06-01T05:58:44.401Z,102017.07
2019-06-01T06:01:14.684Z,102011.40
2019-06-01T06:03:45.479Z,102018.09
2019-06-01T06:06:15.800Z,102020.71
2019-06-01T06:08:46.413Z,102016.50
2019-06-01T06:11:16.710Z,102022.90
2019-06-01T06:13:46.494Z,102025.12
2019-06-01T06:16:15.914Z,102019.26
2019-06-01T06:18:45.406Z,102023.38
2019-06-01T06:21:16.002Z,102025.38
2019-06-01T06:23:45.480Z,102030.17
2019-06-01T06:26:16.834Z,102023.36
2019-06-01T06:28:46.243Z,102023.84
2019-06-01T06:31:15.657Z,102018.73
2019-06-01T06:33:55.989Z,102014.59
2019-06-01T06:36:16.167Z,102011.73
2019-06-01T06:38:45.872Z,102017.70
2019-06-01T06:41:16.049Z,102017.20
2019-06-01T06:43:45.487Z,102020.18
2019-06-01T06:46:14.956Z,102009.30
2019-06-01T06:48:44.521Z,102018.05
2019-06-01T06:51:15.129Z,102016.39
2019-06-01T06:53:44.691Z,102009.18
2019-06-01T06:56:14.080Z,102011.75
2019-06-01T06:58:43.479Z,102010.86
2019-06-01T07:01:13.350Z,102005.22
2019-06-01T07:03:43.004Z,102012.61
2019-06-01T07:06:13.153Z,102013.51
2019-06-01T07:08:42.539Z,102010.23
2019-06-01T07:11:12.258Z,102015.74
2019-06-01T07:13:41.870Z,102014.25
2019-06-01T07:16:11.552Z,102011.41
2019-06-01T07:18:40.966Z,102002.89
2019-06-01T07:21:10.350Z,102006.57
2019-06-01T07:23:39.908Z,102005.22
2019-06-01T07:26:09.288Z,102005.56
2019-06-01T07:28:38.851Z,102002.73
2019-06-01T07:31:08.228Z,101998.59
2019-06-01T07:33:37.617Z,102004.70
2019-06-01T07:36:07.070Z,102004.00
2019-06-01T07:38:39.014Z,102007.82
2019-06-01T07:41:08.560Z,102001.91
2019-06-01T07:43:38.134Z,102009.45
2019-06-01T07:46:07.573Z,102008.39
2019-06-01T07:48:37.087Z,102001.56
2019-06-01T07:51:06.648Z,102003.73
2019-06-01T07:53:36.573Z,102008.95
2019-06-01T07:56:06.355Z,102008.05
2019-06-01T07:58:35.862Z,102011.05
2019-06-01T08:01:06.775Z,102017.64
2019-06-01T08:03:36.502Z,102009.87
2019-06-01T08:06:06.957Z,102011.53
2019-06-01T08:08:36.723Z,102012.38
2019-06-01T08:11:06.728Z,102013.40
2019-06-01T08:13:36.542Z,102008.00
2019-06-01T08:16:06.278Z,102004.25
2019-06-01T08:18:35.863Z,102005.78
2019-06-01T08:21:05.483Z,102006.05
2019-06-01T08:23:35.217Z,102002.22
2019-06-01T08:26:04.857Z,102008.57
2019-06-01T08:28:34.813Z,102003.53
2019-06-01T08:31:04.711Z,102005.63
2019-06-01T08:33:35.112Z,102000.98
2019-06-01T08:36:04.622Z,101998.12
2019-06-01T08:38:34.135Z,102000.65
2019-06-01T08:41:03.569Z,101995.96
2019-06-01T08:43:33.948Z,101996.66
2019-06-01T08:46:03.610Z,101996.52
2019-06-01T08:48:34.072Z,101999.53
2019-06-01T08:51:03.508Z,101992.39
2019-06-01T08:53:34.124Z,101994.04
2019-06-01T08:56:04.020Z,101993.61
2019-06-01T08:58:34.655Z,101992.56
2019-06-01T09:01:04.466Z,101980.64
2019-06-01T09:03:39.930Z,101977.73
2019-06-01T09:06:05.542Z,101980.02
2019-06-01T09:08:35.273Z,101970.69
2019-06-01T09:11:04.886Z,101974.42
2019-06-01T09:13:35.538Z,101973.41
2019-06-01T09:16:05.705Z,101969.03
2019-06-01T09:18:35.822Z,101968.54
2019-06-01T09:21:05.679Z,101971.89
2019-06-01T09:23:37.168Z,101974.14
2019-06-01T09:26:06.413Z,101975.30
2019-06-01T09:28:36.207Z,101975.09
2019-06-01T09:31:05.848Z,101976.69
2019-06-01T09:33:37.002Z,101974.37
2019-06-01T09:36:06.549Z,101972.61
2019-06-01T09:38:37.793Z,101972.47
2019-06-01T09:41:07.270Z,101968.72
2019-06-01T09:43:37.211Z,101964.59
2019-06-01T09:46:06.712Z,101967.90
2019-06-01T09:48:39.366Z,101968.27
2019-06-01T09:51:08.928Z,101958.94
2019-06-01T09:53:38.852Z,101964.87
2019-06-01T09:56:08.233Z,101959.32
2019-06-01T09:58:38.860Z,101957.98
2019-06-01T10:01:08.534Z,101956.03
2019-06-01T10:03:38.578Z,101953.20
2019-06-01T10:06:08.066Z,101953.20
2019-06-01T10:08:38.177Z,101956.77
2019-06-01T10:11:07.571Z,101955.41
2019-06-01T10:13:38.442Z,101954.12
2019-06-01T10:16:08.937Z,101952.75
2019-06-01T10:18:39.004Z,101941.77
2019-06-01T10:21:08.508Z,101945.34
2019-06-01T10:23:38.502Z,101945.86
2019-06-01T10:26:08.057Z,101940.06
2019-06-01T10:28:37.851Z,101945.92
2019-06-01T10:31:07.446Z,101943.30
2019-06-01T10:33:37.413Z,101939.59
2019-06-01T10:36:19.750Z,101943.27
2019-06-01T10:38:39.358Z,101943.22
2019-06-01T10:41:08.782Z,101939.88
2019-06-01T10:43:38.168Z,101931.33
2019-06-01T10:46:07.555Z,101944.23
2019-06-01T10:48:38.107Z,101932.05
2019-06-01T10:51:07.811Z,101932.37
2019-06-01T10:53:38.194Z,101930.47
2019-06-01T10:56:07.656Z,101923.62
2019-06-01T10:58:54.716Z,101925.64
2019-06-01T11:01:08.160Z,101922.77
2019-06-01T11:03:38.705Z,101925.90
2019-06-01T11:06:08.205Z,101925.20
2019-06-01T11:08:39.056Z,101917.09
2019-06-01T11:11:08.415Z,101917.27
2019-06-01T11:13:38.964Z,101914.06
2019-06-01T11:16:08.605Z,101911.77
2019-06-01T11:18:39.441Z,101907.53
2019-06-01T11:21:09.246Z,101910.33
2019-06-01T11:23:42.644Z,101903.72
2019-06-01T11:26:10.011Z,101904.56
2019-06-01T11:28:40.102Z,101898.70
2019-06-01T11:31:09.627Z,101895.80
2019-06-01T11:33:40.132Z,101890.11
2019-06-01T11:36:09.595Z,101890.76
2019-06-01T11:38:40.331Z,101893.13
2019-06-01T11:41:10.870Z,101886.12
2019-06-01T11:43:40.670Z,101891.31
2019-06-01T11:46:10.084Z,101882.79
2019-06-01T11:48:39.483Z,101879.79
2019-06-01T11:51:10.337Z,101878.95
2019-06-01T11:53:41.145Z,101877.69
2019-06-01T11:56:11.262Z,101878.27
2019-06-01T11:58:41.429Z,101869.82
2019-06-01T12:01:10.977Z,101865.39
2019-06-01T12:03:41.713Z,101869.01
2019-06-01T12:06:11.147Z,101865.29
2019-06-01T12:08:42.108Z,101852.38
2019-06-01T12:11:11.701Z,101852.38
2019-06-01T12:13:42.208Z,101842.81
2019-06-01T12:16:11.739Z,101842.81
2019-06-01T12:18:41.119Z,101842.59
2019-06-01T12:21:10.500Z,101844.22
2019-06-01T12:23:41.467Z,101841.88
2019-06-01T12:26:11.144Z,101840.59
2019-06-01T12:28:41.571Z,101831.98
2019-06-01T12:31:11.180Z,101830.27
2019-06-01T12:33:41.923Z,101831.69
2019-06-01T12:36:12.393Z,101828.88
2019-06-01T12:38:54.073Z,101832.02
2019-06-01T12:41:24.586Z,101827.70
2019-06-01T12:43:55.856Z,101824.01
2019-06-01T12:46:25.219Z,101821.52
2019-06-01T12:48:54.695Z,101816.16
2019-06-01T12:51:23.911Z,101815.83
2019-06-01T12:53:53.313Z,101813.61
2019-06-01T12:56:22.694Z,101813.13
2019-06-01T12:58:52.333Z,101811.02
2019-06-01T13:01:21.757Z,101807.75
2019-06-01T13:03:51.706Z,101806.28
2019-06-01T13:06:21.538Z,101802.98
2019-06-01T13:08:50.925Z,101798.98
2019-06-01T13:11:20.512Z,101792.81
2019-06-01T13:13:49.901Z,101792.67
2019-06-01T13:16:19.388Z,101784.29
2019-06-01T13:18:49.531Z,101797.64
2019-06-01T13:21:18.954Z,101781.33
2019-06-01T13:23:49.590Z,101779.70
2019-06-01T13:26:19.297Z,101782.11
2019-06-01T13:28:48.779Z,101781.63
2019-06-01T13:31:18.178Z,101773.34
2019-06-01T13:33:51.634Z,101765.16
2019-06-01T13:36:18.817Z,101765.77
2019-06-01T13:38:48.805Z,101754.41
2019-06-01T13:41:18.239Z,101764.44
2019-06-01T13:43:47.668Z,101763.50
2019-06-01T13:46:17.125Z,101753.08
2019-06-01T13:48:47.479Z,101752.56
2019-06-01T13:51:16.935Z,101743.34
2019-06-01T13:53:46.415Z,101742.14
2019-06-01T13:56:16.068Z,101743.09
2019-06-01T13:58:46.355Z,101740.84
2019-06-01T14:01:15.813Z,101736.36
2019-06-01T14:03:45.198Z,101731.77
2019-06-01T14:06:14.572Z,101732.81
2019-06-01T14:08:44.998Z,101727.73
2019-06-01T14:11:14.717Z,101728.91
2019-06-01T14:13:45.344Z,101722.19
2019-06-01T14:16:14.974Z,101723.55
2019-06-01T14:18:45.627Z,101720.09
2019-06-01T14:21:15.066Z,101725.61
2019-06-01T14:23:45.665Z,101719.31
2019-06-01T14:26:16.195Z,101713.88
2019-06-01T14:28:46.079Z,101713.80
2019-06-01T14:31:15.585Z,101713.46
2019-06-01T14:33:46.391Z,101714.22
2019-06-01T14:36:15.920Z,101710.02
2019-06-01T14:38:47.635Z,101717.04
2019-06-01T14:41:16.494Z,101709.23
2019-06-01T14:43:46.910Z,101705.90
2019-06-01T14:46:16.455Z,101702.72
2019-06-01T14:48:49.265Z,101700.73
2019-06-01T14:51:18.813Z,101700.41
2019-06-01T14:53:49.480Z,101697.98
2019-06-01T14:56:18.940Z,101693.48
2019-06-01T14:58:49.817Z,101690.70
2019-06-01T15:01:32.079Z,101697.04
2019-06-01T15:03:50.778Z,101694.06
2019-06-01T15:06:21.918Z,101690.73
2019-06-01T15:09:10.707Z,101685.91
2019-06-01T15:11:22.613Z,101683.60
2019-06-01T15:13:52.409Z,101678.78
2019-06-01T15:16:21.969Z,101677.00
2019-06-01T15:18:51.580Z,101673.81
2019-06-01T15:21:21.075Z,101671.64
2019-06-01T15:23:50.454Z,101666.47
2019-06-01T15:26:20.203Z,101661.52
2019-06-01T15:28:50.559Z,101662.54
2019-06-01T15:31:20.267Z,101660.97
2019-06-01T15:33:49.641Z,101654.29
2019-06-01T15:36:19.030Z,101652.45
2019-06-01T15:38:48.627Z,101652.77
2019-06-01T15:41:18.013Z,101650.86
2019-06-01T15:43:47.548Z,101653.59
2019-06-01T15:46:16.940Z,101638.70
2019-06-01T15:48:46.336Z,101643.28
2019-06-01T15:51:15.842Z,101639.05
2019-06-01T15:53:45.211Z,101639.84
2019-06-01T15:56:14.605Z,101631.48
2019-06-01T15:58:52.795Z,101637.83
2019-06-01T16:01:34.629Z,101628.88
2019-06-01T16:04:04.362Z,101630.60
2019-06-01T16:06:33.920Z,101629.31
2019-06-01T16:09:03.764Z,101630.52
2019-06-01T16:11:33.297Z,101625.45
2019-06-01T16:14:04.026Z,101621.38
2019-06-01T16:16:33.593Z,101622.73
2019-06-01T16:19:07.684Z,101619.97
2019-06-01T16:21:34.949Z,101615.66
2019-06-01T16:24:04.974Z,101619.34
2019-06-01T16:26:34.739Z,101622.30
2019-06-01T16:29:05.069Z,101613.15
2019-06-01T16:31:34.828Z,101608.80
2019-06-01T16:34:05.222Z,101611.19
2019-06-01T16:36:34.826Z,101608.62
2019-06-01T16:39:07.917Z,101602.55
2019-06-01T16:41:38.624Z,101594.08
2019-06-01T16:44:08.162Z,101597.30
2019-06-01T16:46:37.566Z,101593.83
2019-06-01T16:49:06.972Z,101593.92
2019-06-01T16:51:59.137Z,101591.00
2019-06-01T16:54:28.834Z,101591.81
2019-06-01T16:56:58.245Z,101594.74
2019-06-01T16:59:27.680Z,101596.50
2019-06-01T17:01:58.518Z,101591.76
2019-06-01T17:04:28.403Z,101593.88
2019-06-01T17:06:58.694Z,101591.67
2019-06-01T17:09:28.190Z,101588.06
2019-06-01T17:11:58.813Z,101586.06
2019-06-01T17:14:28.370Z,101579.87
2019-06-01T17:16:58.880Z,101590.00
2019-06-01T17:19:29.653Z,101583.02
2019-06-01T17:21:59.417Z,101580.76
2019-06-01T17:24:28.916Z,101581.81
2019-06-01T17:26:59.667Z,101585.89
2019-06-01T17:29:29.163Z,101584.13
2019-06-01T17:32:16.856Z,101579.47
2019-06-01T17:34:31.463Z,101570.55
2019-06-01T17:37:01.043Z,101574.84
2019-06-01T17:39:30.421Z,101565.26
2019-06-01T17:42:00.330Z,101569.17
2019-06-01T17:44:30.146Z,101571.88
2019-06-01T17:46:59.943Z,101566.64
2019-06-01T17:49:29.488Z,101564.77
2019-06-01T17:51:58.872Z,101570.33
2019-06-01T17:54:28.307Z,101563.59
2019-06-01T17:56:57.861Z,101560.95
2019-06-01T17:59:27.255Z,101573.23
2019-06-01T18:01:56.870Z,101571.22
2019-06-01T18:04:26.291Z,101569.41
2019-06-01T18:06:55.696Z,101568.67
2019-06-01T18:09:25.185Z,101562.18
2019-06-01T18:11:54.556Z,101562.10
2019-06-01T18:14:24.012Z,101563.61
2019-06-01T18:16:53.411Z,101560.01
2019-06-01T18:19:23.007Z,101557.72
2019-06-01T18:21:52.716Z,101564.91
2019-06-01T18:24:22.953Z,101560.78
2019-06-01T18:26:52.335Z,101561.47
2019-06-01T18:29:21.704Z,101564.95
2019-06-01T18:31:51.548Z,101560.33
2019-06-01T18:34:21.198Z,101556.56
2019-06-01T18:36:51.556Z,101556.42
2019-06-01T18:39:21.415Z,101557.70
2019-06-01T18:41:50.807Z,101554.55
2019-06-01T18:44:20.181Z,101551.27
2019-06-01T18:46:49.592Z,101554.23
2019-06-01T18:49:18.991Z,101553.01
2019-06-01T18:51:48.466Z,101556.35
2019-06-01T18:54:17.856Z,101551.17
2019-06-01T18:56:47.319Z,101551.78
2019-06-01T18:59:16.852Z,101546.67
2019-06-01T19:01:46.273Z,101549.62
2019-06-01T19:04:16.028Z,101548.77
2019-06-01T19:06:45.624Z,101548.51
2019-06-01T19:09:15.631Z,101546.91
2019-06-01T19:11:45.051Z,101543.59
2019-06-01T19:14:14.459Z,101541.72
2019-06-01T19:16:43.852Z,101538.98
2019-06-01T19:19:14.455Z,101540.19
2019-06-01T19:21:44.142Z,101542.98
2019-06-01T19:24:14.628Z,101534.84
2019-06-01T19:26:44.203Z,101536.30
2019-06-01T19:29:14.896Z,101533.88
2019-06-01T19:31:47.436Z,101533.86
2019-06-01T19:34:18.024Z,101537.93
2019-06-01T19:36:50.139Z,101539.73
2019-06-01T19:39:20.312Z,101540.47
2019-06-01T19:41:49.920Z,101547.52
2019-06-01T19:44:19.390Z,101545.06
2019-06-01T19:46:48.833Z,101544.23
2019-06-01T19:49:19.042Z,101543.65
2019-06-01T19:51:48.736Z,101552.50
2019-06-01T19:54:19.030Z,101547.77
2019-06-01T19:56:48.475Z,101551.47
2019-06-01T19:59:18.137Z,101552.97
2019-06-01T20:01:47.484Z,101545.46
2019-06-01T20:04:16.991Z,101547.77
2019-06-01T20:06:46.424Z,101546.37
2019-06-01T20:09:17.063Z,101550.82
2019-06-01T20:12:01.025Z,101554.30
2019-06-01T20:14:19.196Z,101555.32
2019-06-01T20:16:49.983Z,101547.89
2019-06-01T20:19:20.334Z,101548.02
2019-06-01T20:21:49.791Z,101547.30
2019-06-01T20:24:21.550Z,101546.57
2019-06-01T20:26:50.934Z,101546.20
2019-06-01T20:29:21.722Z,101546.70
2019-06-01T20:31:51.246Z,101543.64
2019-06-01T20:36:49.507Z,101546.08
2019-06-01T20:39:20.268Z,101548.98
2019-06-01T20:41:49.977Z,101555.89
2019-06-01T20:44:19.362Z,101548.52
2019-06-01T20:46:48.819Z,101546.60
2019-06-01T20:49:18.620Z,101547.77
2019-06-01T20:51:48.948Z,101547.75
2019-06-01T20:54:19.053Z,101548.63
2019-06-01T20:56:48.499Z,101548.52
2019-06-01T20:59:20.247Z,101545.75
2019-06-01T21:01:49.517Z,101540.07
2019-06-01T21:04:20.269Z,101554.22
2019-06-01T21:06:49.807Z,101553.86
2019-06-01T21:09:19.982Z,101550.70
2019-06-01T21:11:49.562Z,101549.03
2019-06-01T21:14:19.064Z,101547.69
2019-06-01T21:16:48.721Z,101545.02
2019-06-01T21:19:18.229Z,101544.49
2019-06-01T21:21:47.603Z,101548.80
2019-06-01T21:24:17.151Z,101543.03
2019-06-01T21:26:46.678Z,101538.45
2019-06-01T21:29:16.717Z,101536.89
2019-06-01T21:31:47.237Z,101538.85
2019-06-01T21:34:17.708Z,101535.68
2019-06-01T21:36:47.117Z,101534.22
2019-06-01T21:39:17.504Z,101531.73
2019-06-01T21:41:47.058Z,101533.24
2019-06-01T21:44:17.445Z,101530.64
2019-06-01T21:46:47.066Z,101529.89
2019-06-01T21:49:17.663Z,101529.66
2019-06-01T21:51:47.178Z,101528.50
2019-06-01T21:54:17.992Z,101518.56
2019-06-01T21:56:47.495Z,101523.68
2019-06-01T21:59:17.120Z,101522.22
2019-06-01T22:01:46.516Z,101517.14
2019-06-01T22:04:16.726Z,101518.91
2019-06-01T22:06:46.618Z,101516.51
2019-06-01T22:09:17.131Z,101513.39
2019-06-01T22:11:47.790Z,101512.88
2019-06-01T22:14:17.413Z,101512.92
2019-06-01T22:16:46.868Z,101511.72
2019-06-01T22:19:17.468Z,101508.05
2019-06-01T22:21:46.923Z,101510.59
2019-06-01T22:24:17.724Z,101514.14
2019-06-01T22:26:47.204Z,101503.95
2019-06-01T22:29:16.593Z,101496.59
2019-06-01T22:31:45.971Z,101498.57
2019-06-01T22:34:15.565Z,101496.45
2019-06-01T22:36:45.017Z,101497.95
2019-06-01T22:39:14.386Z,101500.34
2019-06-01T22:41:45.500Z,101494.37
2019-06-01T22:44:14.889Z,101495.88
2019-06-01T22:46:44.426Z,101493.91
2019-06-01T22:49:13.995Z,101490.71
2019-06-01T22:51:43.925Z,101486.94
2019-06-01T22:54:13.320Z,101491.74
2019-06-01T22:56:43.187Z,101490.25
2019-06-01T22:59:12.573Z,101490.89
2019-06-01T23:01:42.045Z,101485.23
2019-06-01T23:04:12.451Z,101484.86
2019-06-01T23:06:42.005Z,101480.13
2019-06-01T23:09:11.698Z,101480.77
2019-06-01T23:11:41.083Z,101476.02
2019-06-01T23:14:10.457Z,101471.33
2019-06-01T23:16:39.960Z,101472.34
2019-06-01T23:19:09.492Z,101469.07
2019-06-01T23:21:39.074Z,101472.22
2019-06-01T23:24:08.650Z,101467.48
2019-06-01T23:26:38.565Z,101468.97
2019-06-01T23:29:07.962Z,101464.75
2019-06-01T23:31:37.404Z,101462.71
2019-06-01T23:34:07.156Z,101467.34
2019-06-01T23:36:36.548Z,101458.61
2019-06-01T23:39:07.446Z,101460.19
2019-06-01T23:41:36.831Z,101455.88
2019-06-01T23:44:11.618Z,101461.90
2019-06-01T23:46:37.783Z,101462.53
2019-06-01T23:49:07.161Z,101458.30
2019-06-01T23:51:37.301Z,101455.79
2019-06-01T23:54:06.756Z,101451.94
2019-06-01T23:56:37.999Z,101449.05
2019-06-01T23:59:07.676Z,101448.31
